createdAt,value
2022-10-17T00:01:42.866Z,14.70
2022-10-17T00:04:09.597Z,14.70
2022-10-17T00:06:36.204Z,14.70
2022-10-17T00:09:03.308Z,14.70
2022-10-17T00:11:29.836Z,14.70
2022-10-17T00:13:56.413Z,14.60
2022-10-17T00:16:27.036Z,14.70
2022-10-17T00:18:53.719Z,14.70
2022-10-17T00:21:20.380Z,14.70
2022-10-17T00:23:46.890Z,14.70
2022-10-17T00:26:13.936Z,14.70
2022-10-17T00:28:42.948Z,14.70
2022-10-17T00:31:09.562Z,14.70
2022-10-17T00:33:36.162Z,14.70
2022-10-17T00:36:08.591Z,14.70
2022-10-17T00:38:35.834Z,14.70
2022-10-17T00:41:03.196Z,14.70
2022-10-17T00:43:30.240Z,14.70
2022-10-17T00:45:56.907Z,14.80
2022-10-17T00:48:24.316Z,14.70
2022-10-17T00:50:53.157Z,14.70
2022-10-17T00:53:19.706Z,14.70
2022-10-17T00:55:49.480Z,14.70
2022-10-17T00:58:16.449Z,14.70
2022-10-17T01:00:45.612Z,14.80
2022-10-17T01:03:12.162Z,14.80
2022-10-17T01:05:39.430Z,14.80
2022-10-17T01:08:08.600Z,14.80
2022-10-17T01:10:42.712Z,14.80
2022-10-17T01:13:24.206Z,14.80
2022-10-17T01:16:08.359Z,14.80
2022-10-17T01:18:48.849Z,14.70
2022-10-17T01:21:22.516Z,14.70
2022-10-17T01:23:55.053Z,14.70
2022-10-17T01:26:40.176Z,14.70
2022-10-17T01:29:25.534Z,14.70
2022-10-17T01:32:14.658Z,14.70
2022-10-17T01:34:44.076Z,14.70
2022-10-17T01:37:32.093Z,14.70
2022-10-17T01:40:12.543Z,14.70
2022-10-17T01:42:48.282Z,14.70
2022-10-17T01:45:19.609Z,14.70
2022-10-17T01:47:50.060Z,14.70
2022-10-17T01:50:29.499Z,14.70
2022-10-17T01:53:01.187Z,14.70
2022-10-17T01:55:30.580Z,14.60
2022-10-17T01:58:26.213Z,14.60
2022-10-17T02:00:53.557Z,14.60
2022-10-17T02:03:23.571Z,14.70
2022-10-17T02:05:50.090Z,14.70
2022-10-17T02:08:25.269Z,14.70
2022-10-17T02:11:02.193Z,14.60
2022-10-17T02:13:31.198Z,14.70
2022-10-17T02:16:05.575Z,14.70
2022-10-17T02:18:50.216Z,14.70
2022-10-17T02:21:31.358Z,14.70
2022-10-17T02:24:16.803Z,14.70
2022-10-17T02:26:54.892Z,14.60
2022-10-17T02:29:26.379Z,14.60
2022-10-17T02:32:11.850Z,14.60
2022-10-17T02:34:38.388Z,14.60
2022-10-17T02:37:06.039Z,14.50
2022-10-17T02:39:33.461Z,14.50
2022-10-17T02:42:06.422Z,14.50
2022-10-17T02:44:33.877Z,14.50
2022-10-17T02:47:21.707Z,14.50
2022-10-17T02:49:50.889Z,14.50
2022-10-17T02:52:22.388Z,14.40
2022-10-17T02:54:53.322Z,14.30
2022-10-17T02:57:26.882Z,14.30
2022-10-17T02:59:56.100Z,14.30
2022-10-17T03:02:22.722Z,14.30
2022-10-17T03:04:49.343Z,14.30
2022-10-17T03:07:16.129Z,14.30
2022-10-17T03:09:42.641Z,14.30
2022-10-17T03:12:11.320Z,14.30
2022-10-17T03:14:40.309Z,14.30
2022-10-17T03:17:09.240Z,14.30
2022-10-17T03:19:35.744Z,14.30
2022-10-17T03:22:02.303Z,14.30
2022-10-17T03:24:28.828Z,14.30
2022-10-17T03:26:55.314Z,14.20
2022-10-17T03:29:21.937Z,14.30
2022-10-17T03:31:48.550Z,14.20
2022-10-17T03:34:18.656Z,14.20
2022-10-17T03:36:45.717Z,14.20
2022-10-17T03:39:14.639Z,14.20
2022-10-17T03:41:43.604Z,14.10
2022-10-17T03:44:10.182Z,14.10
2022-10-17T03:46:41.351Z,14.00
2022-10-17T03:49:11.531Z,14.00
2022-10-17T03:51:38.103Z,14.00
2022-10-17T03:54:04.686Z,14.00
2022-10-17T03:56:33.592Z,14.00
2022-10-17T03:59:00.463Z,14.00
2022-10-17T04:01:27.110Z,13.90
2022-10-17T04:03:54.734Z,13.90
2022-10-17T04:06:23.962Z,13.90
2022-10-17T04:08:50.539Z,13.90
2022-10-17T04:11:20.683Z,13.80
2022-10-17T04:13:55.026Z,13.80
2022-10-17T04:16:24.187Z,13.80
2022-10-17T04:18:58.641Z,13.80
2022-10-17T04:21:26.402Z,13.80
2022-10-17T04:23:54.445Z,13.70
2022-10-17T04:26:21.164Z,13.70
2022-10-17T04:28:48.134Z,13.70
2022-10-17T04:31:14.710Z,13.70
2022-10-17T04:33:41.586Z,13.70
2022-10-17T04:36:11.049Z,13.70
2022-10-17T04:38:39.804Z,13.70
2022-10-17T04:41:10.307Z,13.70
2022-10-17T04:43:37.870Z,13.70
2022-10-17T04:46:06.085Z,13.70
2022-10-17T04:48:32.627Z,13.70
2022-10-17T04:51:00.277Z,13.70
2022-10-17T04:53:30.803Z,13.70
2022-10-17T04:55:57.327Z,13.70
2022-10-17T04:58:24.190Z,13.70
2022-10-17T05:00:51.628Z,13.60
2022-10-17T05:03:18.213Z,13.60
2022-10-17T05:05:44.761Z,13.60
2022-10-17T05:08:11.745Z,13.60
2022-10-17T05:10:43.864Z,13.60
2022-10-17T05:13:10.504Z,13.60
2022-10-17T05:15:37.282Z,13.60
2022-10-17T05:18:04.908Z,13.50
2022-10-17T05:20:31.955Z,13.50
2022-10-17T05:22:59.568Z,13.50
2022-10-17T05:25:26.108Z,13.50
2022-10-17T05:27:53.103Z,13.50
2022-10-17T05:30:19.712Z,13.50
2022-10-17T05:32:48.697Z,13.50
2022-10-17T05:35:15.230Z,13.50
2022-10-17T05:37:41.790Z,13.50
2022-10-17T05:40:11.003Z,13.50
2022-10-17T05:42:37.579Z,13.50
2022-10-17T05:45:04.374Z,13.50
2022-10-17T05:47:31.746Z,13.40
2022-10-17T05:49:58.566Z,13.50
2022-10-17T05:52:25.223Z,13.40
2022-10-17T05:54:51.762Z,13.40
2022-10-17T05:57:18.350Z,13.40
2022-10-17T05:59:44.848Z,13.30
2022-10-17T06:02:12.703Z,13.30
2022-10-17T06:04:45.470Z,13.30
2022-10-17T06:07:14.724Z,13.30
2022-10-17T06:09:41.546Z,13.20
2022-10-17T06:12:08.479Z,13.20
2022-10-17T06:14:35.002Z,13.20
2022-10-17T06:17:01.589Z,13.30
2022-10-17T06:19:28.177Z,13.30
2022-10-17T06:21:54.707Z,13.30
2022-10-17T06:24:21.588Z,13.30
2022-10-17T06:26:49.758Z,13.40
2022-10-17T06:29:16.560Z,13.40
2022-10-17T06:31:43.319Z,13.40
2022-10-17T06:34:10.189Z,13.50
2022-10-17T06:36:42.078Z,13.50
2022-10-17T06:39:11.084Z,13.50
2022-10-17T06:41:37.666Z,13.50
2022-10-17T06:44:10.769Z,13.60
2022-10-17T06:46:38.089Z,13.50
2022-10-17T06:49:07.280Z,13.50
2022-10-17T06:51:36.960Z,13.60
2022-10-17T06:54:04.075Z,13.50
2022-10-17T06:56:30.680Z,13.50
2022-10-17T06:58:57.408Z,13.60
2022-10-17T07:01:24.020Z,13.60
2022-10-17T07:03:50.612Z,13.60
2022-10-17T07:06:17.962Z,13.60
2022-10-17T07:08:45.067Z,13.70
2022-10-17T07:11:16.166Z,13.70
2022-10-17T07:13:42.907Z,13.70
2022-10-17T07:16:10.010Z,13.80
2022-10-17T07:18:36.639Z,13.80
2022-10-17T07:21:03.960Z,13.80
2022-10-17T07:23:31.040Z,13.80
2022-10-17T07:26:01.487Z,13.90
2022-10-17T07:28:28.711Z,13.90
2022-10-17T07:30:55.308Z,13.90
2022-10-17T07:33:21.922Z,14.00
2022-10-17T07:35:48.446Z,14.00
2022-10-17T07:38:17.217Z,14.00
2022-10-17T07:40:44.090Z,14.10
2022-10-17T07:43:10.693Z,14.10
2022-10-17T07:45:37.223Z,14.20
2022-10-17T07:48:03.889Z,14.30
2022-10-17T07:50:31.701Z,14.30
2022-10-17T07:53:00.618Z,14.40
2022-10-17T07:55:27.151Z,14.50
2022-10-17T07:57:53.747Z,14.60
2022-10-17T08:00:20.331Z,14.60
2022-10-17T08:02:49.140Z,14.70
2022-10-17T08:05:15.810Z,14.80
2022-10-17T08:07:42.361Z,14.90
2022-10-17T08:10:11.353Z,15.00
2022-10-17T08:12:37.882Z,15.10
2022-10-17T08:15:05.396Z,15.20
2022-10-17T08:17:32.014Z,15.30
2022-10-17T08:19:58.571Z,15.40
2022-10-17T08:22:25.096Z,15.50
2022-10-17T08:24:51.718Z,15.50
2022-10-17T08:27:23.787Z,15.60
2022-10-17T08:29:54.091Z,15.70
2022-10-17T08:32:21.363Z,15.70
2022-10-17T08:34:50.733Z,15.80
2022-10-17T08:37:17.493Z,15.90
2022-10-17T08:39:44.215Z,16.00
2022-10-17T08:42:26.102Z,16.10
2022-10-17T08:44:55.542Z,16.20
2022-10-17T08:47:28.565Z,16.30
2022-10-17T08:49:57.528Z,16.40
2022-10-17T08:52:40.646Z,16.60
2022-10-17T08:55:38.822Z,16.70
2022-10-17T09:00:35.883Z,16.90
2022-10-17T09:03:24.523Z,17.00
2022-10-17T09:05:56.011Z,17.10
2022-10-17T09:08:41.841Z,17.30
2022-10-17T09:11:11.107Z,17.40
2022-10-17T09:16:29.854Z,17.60
2022-10-17T09:19:08.394Z,17.70
2022-10-17T09:21:52.047Z,17.80
2022-10-17T09:24:22.399Z,17.90
2022-10-17T09:26:51.015Z,18.10
2022-10-17T09:29:22.499Z,18.20
2022-10-17T09:32:03.403Z,18.30
2022-10-17T09:34:32.667Z,18.50
2022-10-17T09:37:00.277Z,18.60
2022-10-17T09:39:29.208Z,18.80
2022-10-17T09:41:57.272Z,18.90
2022-10-17T09:44:44.014Z,19.10
2022-10-17T09:47:23.296Z,19.20
2022-10-17T09:49:49.901Z,19.40
2022-10-17T09:52:16.447Z,19.50
2022-10-17T09:54:48.244Z,19.50
2022-10-17T09:57:15.516Z,19.60
2022-10-17T09:59:46.001Z,19.80
2022-10-17T10:02:12.529Z,19.80
2022-10-17T10:05:05.083Z,20.00
2022-10-17T10:07:37.461Z,20.00
2022-10-17T10:10:05.726Z,20.20
2022-10-17T10:12:36.202Z,20.30
2022-10-17T10:15:10.135Z,20.30
2022-10-17T10:17:44.104Z,20.40
2022-10-17T10:20:26.037Z,20.50
2022-10-17T10:23:04.499Z,20.60
2022-10-17T10:25:31.148Z,20.80
2022-10-17T10:27:59.413Z,20.80
2022-10-17T10:30:29.857Z,20.80
2022-10-17T10:32:57.294Z,20.80
2022-10-17T10:35:26.243Z,20.80
2022-10-17T10:37:56.255Z,20.90
2022-10-17T10:40:25.459Z,20.90
2022-10-17T10:42:53.185Z,21.00
2022-10-17T10:45:46.334Z,21.20
2022-10-17T10:48:24.042Z,21.20
2022-10-17T10:50:53.324Z,21.30
2022-10-17T10:53:38.714Z,21.30
2022-10-17T10:56:14.457Z,21.30
2022-10-17T10:58:49.187Z,21.30
2022-10-17T11:01:36.758Z,21.40
2022-10-17T11:04:21.736Z,21.50
2022-10-17T11:06:50.089Z,21.60
2022-10-17T11:09:32.984Z,21.60
2022-10-17T11:12:26.948Z,21.60
2022-10-17T11:15:01.234Z,21.70
2022-10-17T11:17:31.321Z,21.70
2022-10-17T11:20:06.835Z,21.80
2022-10-17T11:22:36.530Z,21.80
2022-10-17T11:25:18.458Z,21.90
2022-10-17T11:27:44.996Z,22.00
2022-10-17T11:30:15.411Z,22.00
2022-10-17T11:32:48.617Z,22.10
2022-10-17T11:35:21.069Z,22.10
2022-10-17T11:37:53.123Z,22.20
2022-10-17T11:40:27.551Z,22.20
2022-10-17T11:43:12.746Z,22.30
2022-10-17T11:45:42.476Z,22.30
2022-10-17T11:48:27.401Z,22.40
2022-10-17T11:53:59.636Z,22.40
2022-10-17T11:56:42.753Z,22.40
2022-10-17T11:59:09.538Z,22.40
2022-10-17T12:01:41.205Z,22.40
2022-10-17T12:04:24.658Z,22.40
2022-10-17T12:06:57.312Z,22.40
2022-10-17T12:09:41.630Z,22.50
2022-10-17T12:12:10.403Z,22.50
2022-10-17T12:14:39.810Z,22.50
2022-10-17T12:17:22.498Z,22.50
2022-10-17T12:19:49.298Z,22.50
2022-10-17T12:22:20.626Z,22.50
2022-10-17T12:24:52.963Z,22.50
2022-10-17T12:27:33.408Z,22.50
2022-10-17T12:30:01.294Z,22.60
2022-10-17T12:32:36.857Z,22.70
2022-10-17T12:35:20.228Z,22.70
2022-10-17T12:37:55.149Z,22.70
2022-10-17T12:40:35.976Z,22.80
2022-10-17T12:43:22.505Z,22.80
2022-10-17T12:45:49.052Z,22.80
2022-10-17T12:48:33.947Z,22.80
2022-10-17T12:51:17.740Z,22.80
2022-10-17T12:53:47.086Z,22.70
2022-10-17T12:56:18.482Z,22.70
2022-10-17T12:58:51.562Z,22.60
2022-10-17T13:01:31.686Z,22.70
2022-10-17T13:03:58.813Z,22.70
2022-10-17T13:06:29.309Z,22.70
2022-10-17T13:09:04.144Z,22.60
2022-10-17T13:11:35.328Z,22.60
2022-10-17T13:14:05.799Z,22.50
2022-10-17T13:16:36.480Z,22.50
2022-10-17T13:19:14.020Z,22.50
2022-10-17T13:21:49.407Z,22.50
2022-10-17T13:24:23.328Z,22.50
2022-10-17T13:26:52.321Z,22.50
2022-10-17T13:29:21.928Z,22.50
2022-10-17T13:31:56.173Z,22.50
2022-10-17T13:34:27.107Z,22.60
2022-10-17T13:36:58.134Z,22.60
2022-10-17T13:39:44.891Z,22.60
2022-10-17T13:42:30.680Z,22.60
2022-10-17T13:44:59.672Z,22.70
2022-10-17T13:47:30.476Z,22.70
2022-10-17T13:49:58.129Z,22.70
2022-10-17T13:52:26.861Z,22.70
2022-10-17T13:54:54.013Z,22.70
2022-10-17T13:57:25.479Z,22.70
2022-10-17T13:59:56.889Z,22.70
2022-10-17T14:02:27.521Z,22.70
2022-10-17T14:05:17.798Z,22.70
2022-10-17T14:10:42.918Z,22.70
2022-10-17T14:13:30.243Z,22.70
2022-10-17T14:16:00.679Z,22.70
2022-10-17T14:18:33.233Z,22.70
2022-10-17T14:23:50.042Z,22.60
2022-10-17T14:26:23.367Z,22.60
2022-10-17T14:29:04.689Z,22.60
2022-10-17T14:31:33.175Z,22.60
2022-10-17T14:34:02.370Z,22.60
2022-10-17T14:36:34.060Z,22.50
2022-10-17T14:39:01.921Z,22.50
2022-10-17T14:41:42.310Z,22.50
2022-10-17T14:44:15.657Z,22.40
2022-10-17T14:46:48.410Z,22.40
2022-10-17T14:49:24.059Z,22.30
2022-10-17T14:52:13.402Z,22.40
2022-10-17T14:54:46.261Z,22.40
2022-10-17T14:57:25.467Z,22.30
2022-10-17T14:59:54.186Z,22.30
2022-10-17T15:02:22.529Z,22.40
2022-10-17T15:04:49.210Z,22.40
2022-10-17T15:07:19.271Z,22.40
2022-10-17T15:09:47.608Z,22.40
2022-10-17T15:12:18.455Z,22.40
2022-10-17T15:14:45.388Z,22.30
2022-10-17T15:17:16.469Z,22.30
2022-10-17T15:19:42.999Z,22.30
2022-10-17T15:22:09.549Z,22.30
2022-10-17T15:24:38.947Z,22.20
2022-10-17T15:27:21.719Z,22.20
2022-10-17T15:29:51.732Z,22.20
2022-10-17T15:32:20.759Z,22.20
2022-10-17T15:34:47.411Z,22.20
2022-10-17T15:37:24.057Z,22.10
2022-10-17T15:39:54.564Z,22.20
2022-10-17T15:42:28.308Z,22.20
2022-10-17T15:44:55.495Z,22.10
2022-10-17T15:47:29.510Z,22.10
2022-10-17T15:49:56.564Z,22.10
2022-10-17T15:52:23.514Z,22.00
2022-10-17T15:54:50.198Z,22.00
2022-10-17T15:57:18.989Z,22.00
2022-10-17T15:59:48.770Z,21.90
2022-10-17T16:02:16.322Z,21.90
2022-10-17T16:04:43.407Z,21.80
2022-10-17T16:07:10.552Z,21.80
2022-10-17T16:09:37.349Z,21.80
2022-10-17T16:12:04.818Z,21.70
2022-10-17T16:14:34.079Z,21.70
2022-10-17T16:17:00.708Z,21.70
2022-10-17T16:19:29.782Z,21.60
2022-10-17T16:22:04.436Z,21.60
2022-10-17T16:24:33.572Z,21.50
2022-10-17T16:27:00.086Z,21.50
2022-10-17T16:29:26.626Z,21.40
2022-10-17T16:31:55.351Z,21.40
2022-10-17T16:34:21.881Z,21.40
2022-10-17T16:36:53.809Z,21.40
2022-10-17T16:39:22.876Z,21.30
2022-10-17T16:41:51.677Z,21.30
2022-10-17T16:44:20.138Z,21.30
2022-10-17T16:46:47.202Z,21.20
2022-10-17T16:49:15.903Z,21.10
2022-10-17T16:51:42.461Z,21.10
2022-10-17T16:54:09.039Z,21.10
2022-10-17T16:56:35.601Z,21.00
2022-10-17T16:59:02.180Z,21.00
2022-10-17T17:01:31.082Z,20.90
2022-10-17T17:03:57.638Z,20.90
2022-10-17T17:06:26.845Z,20.80
2022-10-17T17:08:54.288Z,20.80
2022-10-17T17:11:21.948Z,20.70
2022-10-17T17:13:48.715Z,20.60
2022-10-17T17:16:16.865Z,20.60
2022-10-17T17:18:43.769Z,20.50
2022-10-17T17:21:10.922Z,20.50
2022-10-17T17:23:38.398Z,20.40
2022-10-17T17:26:06.370Z,20.40
2022-10-17T17:28:33.491Z,20.40
2022-10-17T17:31:05.729Z,20.40
2022-10-17T17:33:33.719Z,20.30
2022-10-17T17:36:00.786Z,20.30
2022-10-17T17:38:31.326Z,20.20
2022-10-17T17:40:57.977Z,20.10
2022-10-17T17:43:24.590Z,20.10
2022-10-17T17:45:51.196Z,20.10
2022-10-17T17:48:17.751Z,20.00
2022-10-17T17:50:44.661Z,20.00
2022-10-17T17:53:11.965Z,20.00
2022-10-17T17:55:38.531Z,19.90
2022-10-17T17:58:05.143Z,19.90
2022-10-17T18:00:31.713Z,19.90
2022-10-17T18:02:58.258Z,19.80
2022-10-17T18:05:24.772Z,19.70
2022-10-17T18:07:51.323Z,19.70
2022-10-17T18:10:17.917Z,19.70
2022-10-17T18:12:44.623Z,19.60
2022-10-17T18:15:11.421Z,19.60
2022-10-17T18:17:38.195Z,19.60
2022-10-17T18:20:05.513Z,19.50
2022-10-17T18:22:32.523Z,19.50
2022-10-17T18:24:59.518Z,19.40
2022-10-17T18:27:26.034Z,19.30
2022-10-17T18:29:54.924Z,19.20
2022-10-17T18:32:21.599Z,19.20
2022-10-17T18:34:48.151Z,19.20
2022-10-17T18:37:17.143Z,19.10
2022-10-17T18:39:43.751Z,19.10
2022-10-17T18:42:11.251Z,19.10
2022-10-17T18:44:37.824Z,19.10
2022-10-17T18:47:04.651Z,19.00
2022-10-17T18:49:31.419Z,19.00
2022-10-17T18:52:00.185Z,19.00
2022-10-17T18:54:26.797Z,19.00
2022-10-17T18:56:54.010Z,19.00
2022-10-17T18:59:22.838Z,18.90
2022-10-17T19:01:49.686Z,18.90
2022-10-17T19:04:18.724Z,18.90
2022-10-17T19:06:47.449Z,18.90
2022-10-17T19:09:14.305Z,18.80
2022-10-17T19:11:41.978Z,18.80
2022-10-17T19:14:13.018Z,18.80
2022-10-17T19:16:50.733Z,18.70
2022-10-17T19:19:18.829Z,18.70
2022-10-17T19:21:45.869Z,18.70
2022-10-17T19:24:22.929Z,18.60
2022-10-17T19:26:50.327Z,18.60
2022-10-17T19:29:17.937Z,18.60
2022-10-17T19:31:46.380Z,18.50
2022-10-17T19:34:13.642Z,18.50
2022-10-17T19:36:40.968Z,18.50
2022-10-17T19:39:12.143Z,18.40
2022-10-17T19:41:42.872Z,18.40
2022-10-17T19:44:09.758Z,18.40
2022-10-17T19:46:36.996Z,18.30
2022-10-17T19:49:06.649Z,18.30
2022-10-17T19:51:33.775Z,18.30
2022-10-17T19:54:00.643Z,18.20
2022-10-17T19:56:28.163Z,18.20
2022-10-17T19:58:55.570Z,18.10
2022-10-17T20:01:23.112Z,18.10
2022-10-17T20:03:49.823Z,18.10
2022-10-17T20:06:17.035Z,18.10
2022-10-17T20:08:43.624Z,18.10
2022-10-17T20:11:14.724Z,18.10
2022-10-17T20:13:41.350Z,18.10
2022-10-17T20:16:08.902Z,18.10
2022-10-17T20:18:35.437Z,18.00
2022-10-17T20:21:05.618Z,18.00
2022-10-17T20:23:34.822Z,17.90
2022-10-17T20:26:08.057Z,17.90
2022-10-17T20:28:45.682Z,17.90
2022-10-17T20:31:12.826Z,17.90
2022-10-17T20:33:41.286Z,17.90
2022-10-17T20:36:10.509Z,17.80
2022-10-17T20:38:37.082Z,17.80
2022-10-17T20:41:07.030Z,17.70
2022-10-17T20:43:34.122Z,17.70
2022-10-17T20:46:09.790Z,17.70
2022-10-17T20:48:51.033Z,17.60
2022-10-17T20:51:18.001Z,17.60
2022-10-17T20:53:44.571Z,17.60
2022-10-17T20:56:15.002Z,17.60
2022-10-17T20:58:44.071Z,17.60
2022-10-17T21:01:13.017Z,17.60
2022-10-17T21:03:42.441Z,17.60
2022-10-17T21:06:12.385Z,17.60
2022-10-17T21:08:39.192Z,17.50
2022-10-17T21:11:06.633Z,17.50
2022-10-17T21:13:33.175Z,17.50
2022-10-17T21:16:06.842Z,17.40
2022-10-17T21:18:33.453Z,17.40
2022-10-17T21:21:10.628Z,17.40
2022-10-17T21:23:37.490Z,17.40
2022-10-17T21:26:05.823Z,17.30
2022-10-17T21:28:32.385Z,17.20
2022-10-17T21:31:17.771Z,17.20
2022-10-17T21:33:47.751Z,17.20
2022-10-17T21:36:17.067Z,17.10
2022-10-17T21:38:44.408Z,17.20
2022-10-17T21:41:11.471Z,17.20
2022-10-17T21:43:38.420Z,17.20
2022-10-17T21:46:06.392Z,17.20
2022-10-17T21:48:33.330Z,17.20
2022-10-17T21:51:01.037Z,17.20
2022-10-17T21:53:27.666Z,17.10
2022-10-17T21:55:58.386Z,17.10
2022-10-17T21:58:24.928Z,17.00
2022-10-17T22:00:51.636Z,17.10
2022-10-17T22:03:18.233Z,17.00
2022-10-17T22:05:47.490Z,17.00
2022-10-17T22:08:14.077Z,17.00
2022-10-17T22:10:40.920Z,16.90
2022-10-17T22:13:09.609Z,16.90
2022-10-17T22:15:36.199Z,16.90
2022-10-17T22:18:05.009Z,16.90
2022-10-17T22:20:33.144Z,16.90
2022-10-17T22:22:59.684Z,16.90
2022-10-17T22:25:26.296Z,16.90
2022-10-17T22:27:52.871Z,16.90
2022-10-17T22:30:19.736Z,16.90
2022-10-17T22:32:46.563Z,16.90
2022-10-17T22:35:17.965Z,16.90
2022-10-17T22:37:44.683Z,16.90
2022-10-17T22:40:14.350Z,16.90
2022-10-17T22:42:40.850Z,16.90
2022-10-17T22:45:09.712Z,16.90
2022-10-17T22:47:36.268Z,16.90
2022-10-17T22:50:02.803Z,16.90
2022-10-17T22:52:29.576Z,16.90
2022-10-17T22:54:56.325Z,16.90
2022-10-17T22:57:22.873Z,16.90
2022-10-17T22:59:51.802Z,16.90
2022-10-17T23:02:18.349Z,16.80
2022-10-17T23:04:44.874Z,16.80
2022-10-17T23:07:14.030Z,16.80
2022-10-17T23:09:41.194Z,16.80
2022-10-17T23:12:08.521Z,16.70
2022-10-17T23:14:37.460Z,16.70
2022-10-17T23:17:06.982Z,16.80
2022-10-17T23:19:34.080Z,16.80
2022-10-17T23:22:03.523Z,16.80
2022-10-17T23:24:30.398Z,16.80
2022-10-17T23:26:56.901Z,16.80
2022-10-17T23:29:23.731Z,16.80
2022-10-17T23:31:53.357Z,16.80
2022-10-17T23:34:22.298Z,16.80
2022-10-17T23:36:51.003Z,16.80
2022-10-17T23:39:17.514Z,16.70
2022-10-17T23:41:44.079Z,16.80
2022-10-17T23:44:11.232Z,16.80
2022-10-17T23:46:37.851Z,16.70
2022-10-17T23:49:04.854Z,16.70
2022-10-17T23:51:34.426Z,16.70
2022-10-17T23:54:00.986Z,16.70
2022-10-17T23:56:27.696Z,16.70
2022-10-17T23:58:54.234Z,16.70
